sensor_id;sensor_type;location;lat;lon;timestamp;P1;durP1;ratioP1;P2;durP2;ratioP2
51082;SDS011;37131;42.694;23.350;2023-07-28T00:01:28;2.30;;;1.65;;
51082;SDS011;37131;42.694;23.350;2023-07-28T00:03:53;3.58;;;1.77;;
51082;SDS011;37131;42.694;23.350;2023-07-28T00:06:19;3.50;;;1.70;;
51082;SDS011;37131;42.694;23.350;2023-07-28T00:08:44;3.80;;;1.67;;
51082;SDS011;37131;42.694;23.350;2023-07-28T00:11:13;4.40;;;2.03;;
51082;SDS011;37131;42.694;23.350;2023-07-28T00:13:39;3.17;;;1.52;;
51082;SDS011;37131;42.694;23.350;2023-07-28T00:16:06;3.05;;;1.55;;
51082;SDS011;37131;42.694;23.350;2023-07-28T00:18:32;3.30;;;2.00;;
51082;SDS011;37131;42.694;23.350;2023-07-28T00:20:58;4.28;;;1.75;;
51082;SDS011;37131;42.694;23.350;2023-07-28T00:23:24;2.63;;;1.55;;
51082;SDS011;37131;42.694;23.350;2023-07-28T00:25:49;4.28;;;1.52;;
51082;SDS011;37131;42.694;23.350;2023-07-28T00:28:14;2.95;;;1.75;;
51082;SDS011;37131;42.694;23.350;2023-07-28T00:30:40;2.88;;;1.70;;
51082;SDS011;37131;42.694;23.350;2023-07-28T00:33:05;2.58;;;1.52;;
51082;SDS011;37131;42.694;23.350;2023-07-28T00:35:30;2.20;;;1.75;;
51082;SDS011;37131;42.694;23.350;2023-07-28T00:37:56;2.45;;;1.48;;
51082;SDS011;37131;42.694;23.350;2023-07-28T00:40:22;5.78;;;1.83;;
51082;SDS011;37131;42.694;23.350;2023-07-28T00:42:48;3.22;;;1.77;;
51082;SDS011;37131;42.694;23.350;2023-07-28T00:45:13;4.13;;;1.80;;
51082;SDS011;37131;42.694;23.350;2023-07-28T00:47:39;2.33;;;1.58;;
51082;SDS011;37131;42.694;23.350;2023-07-28T00:50:05;5.60;;;2.10;;
51082;SDS011;37131;42.694;23.350;2023-07-28T00:52:31;3.60;;;1.90;;
51082;SDS011;37131;42.694;23.350;2023-07-28T00:54:57;3.45;;;1.60;;
51082;SDS011;37131;42.694;23.350;2023-07-28T00:57:22;3.28;;;1.70;;
51082;SDS011;37131;42.694;23.350;2023-07-28T00:59:48;4.00;;;1.90;;
51082;SDS011;37131;42.694;23.350;2023-07-28T01:02:13;3.90;;;2.30;;
51082;SDS011;37131;42.694;23.350;2023-07-28T01:04:39;10.68;;;2.50;;
51082;SDS011;37131;42.694;23.350;2023-07-28T01:09:52;2.78;;;1.60;;
51082;SDS011;37131;42.694;23.350;2023-07-28T01:12:31;5.47;;;2.17;;
51082;SDS011;37131;42.694;23.350;2023-07-28T01:14:57;4.70;;;1.98;;
51082;SDS011;37131;42.694;23.350;2023-07-28T01:17:22;2.95;;;1.40;;
51082;SDS011;37131;42.694;23.350;2023-07-28T01:19:51;3.50;;;1.65;;
51082;SDS011;37131;42.694;23.350;2023-07-28T01:24:51;2.60;;;1.40;;
51082;SDS011;37131;42.694;23.350;2023-07-28T01:27:22;5.70;;;1.73;;
51082;SDS011;37131;42.694;23.350;2023-07-28T01:29:48;2.55;;;1.02;;
51082;SDS011;37131;42.694;23.350;2023-07-28T01:32:14;2.10;;;1.27;;
51082;SDS011;37131;42.694;23.350;2023-07-28T01:34:39;3.95;;;1.40;;
51082;SDS011;37131;42.694;23.350;2023-07-28T01:37:05;3.90;;;1.70;;
51082;SDS011;37131;42.694;23.350;2023-07-28T01:39:30;2.53;;;1.40;;
51082;SDS011;37131;42.694;23.350;2023-07-28T01:41:56;2.85;;;1.10;;
51082;SDS011;37131;42.694;23.350;2023-07-28T01:44:21;6.15;;;1.30;;
51082;SDS011;37131;42.694;23.350;2023-07-28T01:46:47;2.15;;;1.23;;
51082;SDS011;37131;42.694;23.350;2023-07-28T01:49:12;2.33;;;1.10;;
51082;SDS011;37131;42.694;23.350;2023-07-28T01:51:37;4.10;;;1.40;;
51082;SDS011;37131;42.694;23.350;2023-07-28T01:54:03;2.95;;;1.08;;
51082;SDS011;37131;42.694;23.350;2023-07-28T01:56:28;2.92;;;1.40;;
51082;SDS011;37131;42.694;23.350;2023-07-28T01:58:53;3.53;;;1.50;;
51082;SDS011;37131;42.694;23.350;2023-07-28T02:01:19;1.88;;;1.23;;
51082;SDS011;37131;42.694;23.350;2023-07-28T02:03:44;3.28;;;1.35;;
51082;SDS011;37131;42.694;23.350;2023-07-28T02:06:09;2.65;;;1.30;;
51082;SDS011;37131;42.694;23.350;2023-07-28T02:08:35;1.67;;;1.08;;
51082;SDS011;37131;42.694;23.350;2023-07-28T02:11:00;2.13;;;1.05;;
51082;SDS011;37131;42.694;23.350;2023-07-28T02:13:25;2.78;;;1.27;;
51082;SDS011;37131;42.694;23.350;2023-07-28T02:15:51;2.63;;;1.17;;
51082;SDS011;37131;42.694;23.350;2023-07-28T02:18:16;1.95;;;0.88;;
51082;SDS011;37131;42.694;23.350;2023-07-28T02:20:42;4.82;;;1.00;;
51082;SDS011;37131;42.694;23.350;2023-07-28T02:23:07;2.33;;;1.13;;
51082;SDS011;37131;42.694;23.350;2023-07-28T02:25:33;3.60;;;1.40;;
51082;SDS011;37131;42.694;23.350;2023-07-28T02:27:58;2.53;;;1.15;;
51082;SDS011;37131;42.694;23.350;2023-07-28T02:30:23;4.65;;;1.20;;
51082;SDS011;37131;42.694;23.350;2023-07-28T02:32:49;4.55;;;1.45;;
51082;SDS011;37131;42.694;23.350;2023-07-28T02:35:14;2.40;;;1.00;;
51082;SDS011;37131;42.694;23.350;2023-07-28T02:37:39;3.53;;;1.10;;
51082;SDS011;37131;42.694;23.350;2023-07-28T02:40:06;2.72;;;1.10;;
51082;SDS011;37131;42.694;23.350;2023-07-28T02:42:32;5.18;;;1.20;;
51082;SDS011;37131;42.694;23.350;2023-07-28T02:44:58;3.85;;;1.15;;
51082;SDS011;37131;42.694;23.350;2023-07-28T02:47:24;2.72;;;1.55;;
51082;SDS011;37131;42.694;23.350;2023-07-28T02:49:49;6.18;;;1.33;;
51082;SDS011;37131;42.694;23.350;2023-07-28T02:52:15;2.22;;;1.30;;
51082;SDS011;37131;42.694;23.350;2023-07-28T02:54:40;3.78;;;1.55;;
51082;SDS011;37131;42.694;23.350;2023-07-28T02:57:06;3.38;;;1.40;;
51082;SDS011;37131;42.694;23.350;2023-07-28T02:59:31;2.10;;;1.20;;
51082;SDS011;37131;42.694;23.350;2023-07-28T03:01:56;4.43;;;1.13;;
51082;SDS011;37131;42.694;23.350;2023-07-28T03:04:22;2.97;;;1.52;;
51082;SDS011;37131;42.694;23.350;2023-07-28T03:06:47;3.80;;;1.23;;
51082;SDS011;37131;42.694;23.350;2023-07-28T03:09:13;2.10;;;1.40;;
51082;SDS011;37131;42.694;23.350;2023-07-28T03:11:38;3.40;;;1.20;;
51082;SDS011;37131;42.694;23.350;2023-07-28T03:14:04;3.85;;;1.30;;
51082;SDS011;37131;42.694;23.350;2023-07-28T03:16:29;2.55;;;1.38;;
51082;SDS011;37131;42.694;23.350;2023-07-28T03:18:55;2.97;;;1.25;;
51082;SDS011;37131;42.694;23.350;2023-07-28T03:21:20;4.20;;;1.60;;
51082;SDS011;37131;42.694;23.350;2023-07-28T03:23:45;3.42;;;1.65;;
51082;SDS011;37131;42.694;23.350;2023-07-28T03:26:11;4.43;;;1.40;;
51082;SDS011;37131;42.694;23.350;2023-07-28T03:28:36;2.03;;;1.45;;
51082;SDS011;37131;42.694;23.350;2023-07-28T03:31:01;3.13;;;1.60;;
51082;SDS011;37131;42.694;23.350;2023-07-28T03:33:27;3.22;;;1.50;;
51082;SDS011;37131;42.694;23.350;2023-07-28T03:35:52;4.15;;;1.50;;
51082;SDS011;37131;42.694;23.350;2023-07-28T03:38:18;3.20;;;1.60;;
51082;SDS011;37131;42.694;23.350;2023-07-28T03:40:44;7.05;;;1.80;;
51082;SDS011;37131;42.694;23.350;2023-07-28T03:43:09;6.53;;;1.85;;
51082;SDS011;37131;42.694;23.350;2023-07-28T03:45:35;4.05;;;1.50;;
51082;SDS011;37131;42.694;23.350;2023-07-28T03:48:00;2.88;;;1.73;;
51082;SDS011;37131;42.694;23.350;2023-07-28T03:50:26;2.60;;;1.45;;
51082;SDS011;37131;42.694;23.350;2023-07-28T03:52:52;3.45;;;1.75;;
51082;SDS011;37131;42.694;23.350;2023-07-28T03:55:18;6.22;;;2.05;;
51082;SDS011;37131;42.694;23.350;2023-07-28T03:57:43;8.13;;;2.42;;
51082;SDS011;37131;42.694;23.350;2023-07-28T04:00:09;5.15;;;1.80;;
51082;SDS011;37131;42.694;23.350;2023-07-28T04:02:35;5.43;;;2.03;;
51082;SDS011;37131;42.694;23.350;2023-07-28T04:05:00;5.30;;;2.00;;
51082;SDS011;37131;42.694;23.350;2023-07-28T04:07:26;3.38;;;1.50;;
51082;SDS011;37131;42.694;23.350;2023-07-28T04:09:51;6.13;;;2.00;;
51082;SDS011;37131;42.694;23.350;2023-07-28T04:12:16;5.00;;;1.83;;
51082;SDS011;37131;42.694;23.350;2023-07-28T04:14:42;4.00;;;1.77;;
51082;SDS011;37131;42.694;23.350;2023-07-28T04:17:07;5.00;;;1.83;;
51082;SDS011;37131;42.694;23.350;2023-07-28T04:19:32;4.32;;;1.80;;
51082;SDS011;37131;42.694;23.350;2023-07-28T04:21:59;3.28;;;1.85;;
51082;SDS011;37131;42.694;23.350;2023-07-28T04:24:25;4.90;;;2.00;;
51082;SDS011;37131;42.694;23.350;2023-07-28T04:26:51;3.42;;;1.70;;
51082;SDS011;37131;42.694;23.350;2023-07-28T04:29:16;4.15;;;1.60;;
51082;SDS011;37131;42.694;23.350;2023-07-28T04:31:42;4.10;;;1.70;;
51082;SDS011;37131;42.694;23.350;2023-07-28T04:34:07;8.90;;;2.10;;
51082;SDS011;37131;42.694;23.350;2023-07-28T04:36:33;3.63;;;2.13;;
51082;SDS011;37131;42.694;23.350;2023-07-28T04:38:58;3.30;;;2.10;;
51082;SDS011;37131;42.694;23.350;2023-07-28T04:41:23;6.18;;;1.92;;
51082;SDS011;37131;42.694;23.350;2023-07-28T04:43:49;3.85;;;1.83;;
51082;SDS011;37131;42.694;23.350;2023-07-28T04:46:14;5.43;;;1.73;;
51082;SDS011;37131;42.694;23.350;2023-07-28T04:48:40;7.05;;;2.00;;
51082;SDS011;37131;42.694;23.350;2023-07-28T04:51:05;4.32;;;2.13;;
51082;SDS011;37131;42.694;23.350;2023-07-28T04:53:30;3.67;;;2.20;;
51082;SDS011;37131;42.694;23.350;2023-07-28T04:55:56;4.97;;;1.80;;
51082;SDS011;37131;42.694;23.350;2023-07-28T04:58:21;3.97;;;2.05;;
51082;SDS011;37131;42.694;23.350;2023-07-28T05:00:46;5.20;;;1.90;;
51082;SDS011;37131;42.694;23.350;2023-07-28T05:03:12;8.23;;;1.73;;
51082;SDS011;37131;42.694;23.350;2023-07-28T05:05:37;4.60;;;1.88;;
51082;SDS011;37131;42.694;23.350;2023-07-28T05:08:03;3.45;;;1.65;;
51082;SDS011;37131;42.694;23.350;2023-07-28T05:10:28;5.85;;;2.30;;
51082;SDS011;37131;42.694;23.350;2023-07-28T05:12:53;4.05;;;2.50;;
51082;SDS011;37131;42.694;23.350;2023-07-28T05:15:19;3.60;;;2.10;;
51082;SDS011;37131;42.694;23.350;2023-07-28T05:17:45;5.30;;;2.50;;
51082;SDS011;37131;42.694;23.350;2023-07-28T05:20:10;3.38;;;2.30;;
51082;SDS011;37131;42.694;23.350;2023-07-28T05:22:36;4.07;;;2.50;;
51082;SDS011;37131;42.694;23.350;2023-07-28T05:25:01;5.38;;;3.03;;
51082;SDS011;37131;42.694;23.350;2023-07-28T05:27:27;4.80;;;3.30;;
51082;SDS011;37131;42.694;23.350;2023-07-28T05:29:52;6.57;;;2.85;;
51082;SDS011;37131;42.694;23.350;2023-07-28T05:32:17;5.47;;;2.85;;
51082;SDS011;37131;42.694;23.350;2023-07-28T05:34:43;8.02;;;2.65;;
51082;SDS011;37131;42.694;23.350;2023-07-28T05:37:08;6.63;;;2.38;;
51082;SDS011;37131;42.694;23.350;2023-07-28T05:39:34;5.13;;;2.10;;
51082;SDS011;37131;42.694;23.350;2023-07-28T05:41:59;3.92;;;1.98;;
51082;SDS011;37131;42.694;23.350;2023-07-28T05:44:25;5.15;;;1.90;;
51082;SDS011;37131;42.694;23.350;2023-07-28T05:46:50;4.10;;;1.55;;
51082;SDS011;37131;42.694;23.350;2023-07-28T05:49:15;2.92;;;1.08;;
51082;SDS011;37131;42.694;23.350;2023-07-28T05:51:41;3.67;;;1.35;;
51082;SDS011;37131;42.694;23.350;2023-07-28T05:54:06;8.93;;;1.80;;
51082;SDS011;37131;42.694;23.350;2023-07-28T05:56:32;2.88;;;1.42;;
51082;SDS011;37131;42.694;23.350;2023-07-28T05:58:57;3.95;;;1.55;;
51082;SDS011;37131;42.694;23.350;2023-07-28T06:01:23;3.60;;;1.80;;
51082;SDS011;37131;42.694;23.350;2023-07-28T06:03:50;8.38;;;1.65;;
51082;SDS011;37131;42.694;23.350;2023-07-28T06:06:17;3.88;;;1.60;;
51082;SDS011;37131;42.694;23.350;2023-07-28T06:08:43;2.50;;;1.48;;
51082;SDS011;37131;42.694;23.350;2023-07-28T06:11:09;10.00;;;2.03;;
51082;SDS011;37131;42.694;23.350;2023-07-28T06:13:34;4.53;;;1.98;;
51082;SDS011;37131;42.694;23.350;2023-07-28T06:16:00;2.80;;;1.48;;
51082;SDS011;37131;42.694;23.350;2023-07-28T06:18:25;4.57;;;1.73;;
51082;SDS011;37131;42.694;23.350;2023-07-28T06:20:50;5.95;;;2.13;;
51082;SDS011;37131;42.694;23.350;2023-07-28T06:23:16;4.15;;;2.05;;
51082;SDS011;37131;42.694;23.350;2023-07-28T06:25:41;3.60;;;1.92;;
51082;SDS011;37131;42.694;23.350;2023-07-28T06:28:11;6.43;;;2.05;;
51082;SDS011;37131;42.694;23.350;2023-07-28T06:30:37;1.98;;;1.77;;
51082;SDS011;37131;42.694;23.350;2023-07-28T06:33:05;6.68;;;2.50;;
51082;SDS011;37131;42.694;23.350;2023-07-28T06:35:31;3.88;;;1.90;;
51082;SDS011;37131;42.694;23.350;2023-07-28T06:37:57;3.33;;;1.77;;
51082;SDS011;37131;42.694;23.350;2023-07-28T06:40:23;3.00;;;1.58;;
51082;SDS011;37131;42.694;23.350;2023-07-28T06:42:48;3.50;;;1.52;;
51082;SDS011;37131;42.694;23.350;2023-07-28T06:45:13;4.00;;;1.55;;
51082;SDS011;37131;42.694;23.350;2023-07-28T06:47:39;2.85;;;1.50;;
51082;SDS011;37131;42.694;23.350;2023-07-28T06:50:05;3.17;;;1.67;;
51082;SDS011;37131;42.694;23.350;2023-07-28T06:52:31;5.00;;;1.80;;
51082;SDS011;37131;42.694;23.350;2023-07-28T06:54:56;8.70;;;2.10;;
51082;SDS011;37131;42.694;23.350;2023-07-28T06:57:22;3.60;;;1.27;;
51082;SDS011;37131;42.694;23.350;2023-07-28T06:59:47;4.32;;;1.55;;
51082;SDS011;37131;42.694;23.350;2023-07-28T07:02:13;8.98;;;1.70;;
51082;SDS011;37131;42.694;23.350;2023-07-28T07:04:39;3.22;;;1.60;;
51082;SDS011;37131;42.694;23.350;2023-07-28T07:07:04;7.85;;;1.77;;
51082;SDS011;37131;42.694;23.350;2023-07-28T07:09:30;3.78;;;1.70;;
51082;SDS011;37131;42.694;23.350;2023-07-28T07:11:55;3.47;;;1.63;;
51082;SDS011;37131;42.694;23.350;2023-07-28T07:14:21;2.80;;;1.42;;
51082;SDS011;37131;42.694;23.350;2023-07-28T07:16:46;5.38;;;1.33;;
51082;SDS011;37131;42.694;23.350;2023-07-28T07:19:12;4.25;;;1.67;;
51082;SDS011;37131;42.694;23.350;2023-07-28T07:21:38;5.35;;;1.70;;
51082;SDS011;37131;42.694;23.350;2023-07-28T07:24:04;4.68;;;1.52;;
51082;SDS011;37131;42.694;23.350;2023-07-28T07:26:29;3.42;;;1.50;;
51082;SDS011;37131;42.694;23.350;2023-07-28T07:28:56;3.22;;;1.40;;
51082;SDS011;37131;42.694;23.350;2023-07-28T07:31:22;6.82;;;2.28;;
51082;SDS011;37131;42.694;23.350;2023-07-28T07:33:48;3.88;;;1.50;;
51082;SDS011;37131;42.694;23.350;2023-07-28T07:36:14;4.75;;;1.60;;
51082;SDS011;37131;42.694;23.350;2023-07-28T07:38:40;7.40;;;1.75;;
51082;SDS011;37131;42.694;23.350;2023-07-28T07:41:06;3.17;;;1.55;;
51082;SDS011;37131;42.694;23.350;2023-07-28T07:43:33;5.53;;;1.85;;
51082;SDS011;37131;42.694;23.350;2023-07-28T07:45:59;2.92;;;1.42;;
51082;SDS011;37131;42.694;23.350;2023-07-28T07:48:24;3.42;;;1.50;;
51082;SDS011;37131;42.694;23.350;2023-07-28T07:50:50;3.05;;;1.30;;
51082;SDS011;37131;42.694;23.350;2023-07-28T07:53:16;2.30;;;1.15;;
51082;SDS011;37131;42.694;23.350;2023-07-28T07:55:42;6.95;;;1.65;;
51082;SDS011;37131;42.694;23.350;2023-07-28T07:58:07;2.45;;;1.50;;
51082;SDS011;37131;42.694;23.350;2023-07-28T08:00:33;5.72;;;1.77;;
51082;SDS011;37131;42.694;23.350;2023-07-28T08:02:59;4.22;;;1.48;;
51082;SDS011;37131;42.694;23.350;2023-07-28T08:05:24;5.47;;;1.27;;
51082;SDS011;37131;42.694;23.350;2023-07-28T08:07:50;3.63;;;1.20;;
51082;SDS011;37131;42.694;23.350;2023-07-28T08:10:15;3.30;;;1.48;;
51082;SDS011;37131;42.694;23.350;2023-07-28T08:12:42;6.63;;;1.40;;
51082;SDS011;37131;42.694;23.350;2023-07-28T08:15:09;2.75;;;1.08;;
51082;SDS011;37131;42.694;23.350;2023-07-28T08:17:35;3.53;;;1.20;;
51082;SDS011;37131;42.694;23.350;2023-07-28T08:20:00;3.97;;;1.00;;
51082;SDS011;37131;42.694;23.350;2023-07-28T08:22:26;2.78;;;1.20;;
51082;SDS011;37131;42.694;23.350;2023-07-28T08:24:52;3.10;;;1.15;;
51082;SDS011;37131;42.694;23.350;2023-07-28T08:27:17;1.92;;;1.10;;
51082;SDS011;37131;42.694;23.350;2023-07-28T08:29:43;2.80;;;1.00;;
51082;SDS011;37131;42.694;23.350;2023-07-28T08:32:08;5.18;;;1.33;;
51082;SDS011;37131;42.694;23.350;2023-07-28T08:34:34;2.97;;;1.25;;
51082;SDS011;37131;42.694;23.350;2023-07-28T08:36:59;3.05;;;1.17;;
51082;SDS011;37131;42.694;23.350;2023-07-28T08:39:24;3.38;;;1.00;;
51082;SDS011;37131;42.694;23.350;2023-07-28T08:42:03;3.63;;;1.30;;
51082;SDS011;37131;42.694;23.350;2023-07-28T08:44:30;3.00;;;1.00;;
51082;SDS011;37131;42.694;23.350;2023-07-28T08:46:59;5.05;;;1.10;;
51082;SDS011;37131;42.694;23.350;2023-07-28T08:49:25;3.03;;;0.90;;
51082;SDS011;37131;42.694;23.350;2023-07-28T08:51:51;2.60;;;1.20;;
51082;SDS011;37131;42.694;23.350;2023-07-28T08:54:22;5.40;;;1.15;;
51082;SDS011;37131;42.694;23.350;2023-07-28T08:56:47;3.75;;;1.30;;
51082;SDS011;37131;42.694;23.350;2023-07-28T08:59:19;3.03;;;1.20;;
51082;SDS011;37131;42.694;23.350;2023-07-28T09:01:50;7.35;;;1.10;;
51082;SDS011;37131;42.694;23.350;2023-07-28T09:04:16;6.20;;;1.50;;
51082;SDS011;37131;42.694;23.350;2023-07-28T09:06:45;2.95;;;1.10;;
51082;SDS011;37131;42.694;23.350;2023-07-28T09:09:11;4.20;;;1.20;;
51082;SDS011;37131;42.694;23.350;2023-07-28T09:11:47;3.97;;;1.00;;
51082;SDS011;37131;42.694;23.350;2023-07-28T09:14:15;2.97;;;1.17;;
51082;SDS011;37131;42.694;23.350;2023-07-28T09:16:42;5.43;;;1.20;;
51082;SDS011;37131;42.694;23.350;2023-07-28T09:19:08;3.10;;;1.23;;
51082;SDS011;37131;42.694;23.350;2023-07-28T09:21:34;3.85;;;1.10;;
51082;SDS011;37131;42.694;23.350;2023-07-28T09:24:00;2.40;;;1.20;;
51082;SDS011;37131;42.694;23.350;2023-07-28T09:26:41;5.18;;;1.10;;
51082;SDS011;37131;42.694;23.350;2023-07-28T09:31:39;1.40;;;0.90;;
51082;SDS011;37131;42.694;23.350;2023-07-28T09:34:07;4.05;;;1.17;;
51082;SDS011;37131;42.694;23.350;2023-07-28T09:36:34;7.13;;;1.30;;
51082;SDS011;37131;42.694;23.350;2023-07-28T09:39:01;3.53;;;1.20;;
51082;SDS011;37131;42.694;23.350;2023-07-28T09:41:31;6.95;;;1.45;;
51082;SDS011;37131;42.694;23.350;2023-07-28T09:43:57;2.90;;;1.05;;
51082;SDS011;37131;42.694;23.350;2023-07-28T09:46:23;1.98;;;1.17;;
51082;SDS011;37131;42.694;23.350;2023-07-28T09:48:51;2.97;;;1.20;;
51082;SDS011;37131;42.694;23.350;2023-07-28T09:51:21;2.05;;;1.00;;
51082;SDS011;37131;42.694;23.350;2023-07-28T09:53:55;2.90;;;1.20;;
51082;SDS011;37131;42.694;23.350;2023-07-28T09:56:25;2.67;;;1.25;;
51082;SDS011;37131;42.694;23.350;2023-07-28T09:58:54;1.92;;;1.02;;
51082;SDS011;37131;42.694;23.350;2023-07-28T10:01:21;2.63;;;1.00;;
51082;SDS011;37131;42.694;23.350;2023-07-28T10:03:48;2.90;;;1.15;;
51082;SDS011;37131;42.694;23.350;2023-07-28T10:06:14;4.10;;;1.00;;
51082;SDS011;37131;42.694;23.350;2023-07-28T10:08:41;7.60;;;1.30;;
51082;SDS011;37131;42.694;23.350;2023-07-28T10:11:09;2.55;;;1.02;;
51082;SDS011;37131;42.694;23.350;2023-07-28T10:13:40;2.45;;;1.23;;
51082;SDS011;37131;42.694;23.350;2023-07-28T10:16:11;2.03;;;1.13;;
51082;SDS011;37131;42.694;23.350;2023-07-28T10:18:39;2.92;;;1.13;;
51082;SDS011;37131;42.694;23.350;2023-07-28T10:21:06;2.00;;;1.15;;
51082;SDS011;37131;42.694;23.350;2023-07-28T10:23:38;2.45;;;1.10;;
51082;SDS011;37131;42.694;23.350;2023-07-28T10:26:03;2.65;;;1.20;;
51082;SDS011;37131;42.694;23.350;2023-07-28T10:28:38;4.28;;;1.33;;
51082;SDS011;37131;42.694;23.350;2023-07-28T10:31:08;8.60;;;1.10;;
51082;SDS011;37131;42.694;23.350;2023-07-28T10:33:44;4.38;;;1.40;;
51082;SDS011;37131;42.694;23.350;2023-07-28T10:38:36;3.00;;;1.13;;
51082;SDS011;37131;42.694;23.350;2023-07-28T10:41:06;5.47;;;1.25;;
51082;SDS011;37131;42.694;23.350;2023-07-28T10:43:33;6.85;;;1.40;;
51082;SDS011;37131;42.694;23.350;2023-07-28T10:45:59;6.38;;;1.65;;
51082;SDS011;37131;42.694;23.350;2023-07-28T10:48:25;3.22;;;1.10;;
51082;SDS011;37131;42.694;23.350;2023-07-28T10:50:51;3.03;;;1.10;;
51082;SDS011;37131;42.694;23.350;2023-07-28T10:53:17;3.22;;;1.38;;
51082;SDS011;37131;42.694;23.350;2023-07-28T10:55:42;2.55;;;1.15;;
51082;SDS011;37131;42.694;23.350;2023-07-28T10:58:09;2.28;;;1.08;;
51082;SDS011;37131;42.694;23.350;2023-07-28T11:00:34;2.70;;;1.00;;
51082;SDS011;37131;42.694;23.350;2023-07-28T11:03:00;4.30;;;1.38;;
51082;SDS011;37131;42.694;23.350;2023-07-28T11:05:26;3.92;;;1.27;;
51082;SDS011;37131;42.694;23.350;2023-07-28T11:08:02;2.70;;;1.27;;
51082;SDS011;37131;42.694;23.350;2023-07-28T11:10:28;3.22;;;1.15;;
51082;SDS011;37131;42.694;23.350;2023-07-28T11:12:56;2.78;;;1.02;;
51082;SDS011;37131;42.694;23.350;2023-07-28T11:15:24;3.03;;;1.17;;
51082;SDS011;37131;42.694;23.350;2023-07-28T11:17:50;6.90;;;1.35;;
51082;SDS011;37131;42.694;23.350;2023-07-28T11:22:59;1.70;;;1.13;;
51082;SDS011;37131;42.694;23.350;2023-07-28T11:25:26;2.72;;;1.10;;
51082;SDS011;37131;42.694;23.350;2023-07-28T11:27:53;3.45;;;1.00;;
51082;SDS011;37131;42.694;23.350;2023-07-28T11:30:20;2.45;;;1.10;;
51082;SDS011;37131;42.694;23.350;2023-07-28T11:32:47;2.53;;;1.10;;
51082;SDS011;37131;42.694;23.350;2023-07-28T11:35:17;1.63;;;0.77;;
51082;SDS011;37131;42.694;23.350;2023-07-28T11:37:45;5.50;;;1.20;;
51082;SDS011;37131;42.694;23.350;2023-07-28T11:40:17;3.05;;;0.82;;
51082;SDS011;37131;42.694;23.350;2023-07-28T11:42:48;2.47;;;0.90;;
51082;SDS011;37131;42.694;23.350;2023-07-28T11:45:16;2.85;;;1.10;;
51082;SDS011;37131;42.694;23.350;2023-07-28T11:48:00;3.13;;;1.20;;
51082;SDS011;37131;42.694;23.350;2023-07-28T11:50:29;4.30;;;1.17;;
51082;SDS011;37131;42.694;23.350;2023-07-28T11:52:59;3.08;;;0.95;;
51082;SDS011;37131;42.694;23.350;2023-07-28T11:55:25;2.50;;;1.00;;
51082;SDS011;37131;42.694;23.350;2023-07-28T11:57:51;2.67;;;0.90;;
51082;SDS011;37131;42.694;23.350;2023-07-28T12:00:18;4.28;;;1.10;;
51082;SDS011;37131;42.694;23.350;2023-07-28T12:02:59;4.72;;;1.00;;
51082;SDS011;37131;42.694;23.350;2023-07-28T12:05:26;4.82;;;1.10;;
51082;SDS011;37131;42.694;23.350;2023-07-28T12:07:52;3.25;;;1.00;;
51082;SDS011;37131;42.694;23.350;2023-07-28T12:10:18;2.33;;;0.90;;
51082;SDS011;37131;42.694;23.350;2023-07-28T12:12:44;5.13;;;1.05;;
51082;SDS011;37131;42.694;23.350;2023-07-28T12:20:33;1.67;;;0.73;;
51082;SDS011;37131;42.694;23.350;2023-07-28T12:23:02;3.20;;;0.93;;
51082;SDS011;37131;42.694;23.350;2023-07-28T12:25:28;2.92;;;1.05;;
51082;SDS011;37131;42.694;23.350;2023-07-28T12:27:54;1.92;;;0.68;;
51082;SDS011;37131;42.694;23.350;2023-07-28T12:30:20;2.67;;;0.93;;
51082;SDS011;37131;42.694;23.350;2023-07-28T12:32:47;2.35;;;1.23;;
51082;SDS011;37131;42.694;23.350;2023-07-28T12:35:13;1.30;;;0.82;;
51082;SDS011;37131;42.694;23.350;2023-07-28T12:37:39;2.25;;;1.02;;
51082;SDS011;37131;42.694;23.350;2023-07-28T12:40:05;1.73;;;0.90;;
51082;SDS011;37131;42.694;23.350;2023-07-28T12:42:31;1.45;;;0.90;;
51082;SDS011;37131;42.694;23.350;2023-07-28T12:44:57;1.98;;;1.00;;
51082;SDS011;37131;42.694;23.350;2023-07-28T12:47:22;2.55;;;0.90;;
51082;SDS011;37131;42.694;23.350;2023-07-28T12:49:48;2.75;;;0.88;;
51082;SDS011;37131;42.694;23.350;2023-07-28T12:52:13;1.83;;;0.90;;
51082;SDS011;37131;42.694;23.350;2023-07-28T12:54:40;1.45;;;0.80;;
51082;SDS011;37131;42.694;23.350;2023-07-28T12:57:07;1.40;;;0.80;;
51082;SDS011;37131;42.694;23.350;2023-07-28T12:59:35;1.02;;;0.88;;
51082;SDS011;37131;42.694;23.350;2023-07-28T13:02:00;1.63;;;1.00;;
51082;SDS011;37131;42.694;23.350;2023-07-28T13:04:25;4.88;;;0.90;;
51082;SDS011;37131;42.694;23.350;2023-07-28T13:06:51;1.63;;;0.90;;
51082;SDS011;37131;42.694;23.350;2023-07-28T13:09:16;2.35;;;0.73;;
51082;SDS011;37131;42.694;23.350;2023-07-28T13:11:42;1.45;;;0.88;;
51082;SDS011;37131;42.694;23.350;2023-07-28T13:14:07;0.90;;;0.68;;
51082;SDS011;37131;42.694;23.350;2023-07-28T13:16:32;2.40;;;0.90;;
51082;SDS011;37131;42.694;23.350;2023-07-28T13:18:58;3.00;;;0.80;;
51082;SDS011;37131;42.694;23.350;2023-07-28T13:21:24;1.20;;;0.85;;
51082;SDS011;37131;42.694;23.350;2023-07-28T13:23:50;2.83;;;0.80;;
51082;SDS011;37131;42.694;23.350;2023-07-28T13:26:15;1.20;;;0.80;;
51082;SDS011;37131;42.694;23.350;2023-07-28T13:28:40;2.65;;;0.90;;
51082;SDS011;37131;42.694;23.350;2023-07-28T13:31:12;3.03;;;0.88;;
51082;SDS011;37131;42.694;23.350;2023-07-28T13:33:41;1.02;;;0.63;;
51082;SDS011;37131;42.694;23.350;2023-07-28T13:36:06;1.67;;;0.98;;
51082;SDS011;37131;42.694;23.350;2023-07-28T13:38:33;1.35;;;0.90;;
51082;SDS011;37131;42.694;23.350;2023-07-28T13:40:58;1.50;;;0.60;;
51082;SDS011;37131;42.694;23.350;2023-07-28T13:43:24;3.10;;;0.88;;
51082;SDS011;37131;42.694;23.350;2023-07-28T13:45:49;2.95;;;0.82;;
51082;SDS011;37131;42.694;23.350;2023-07-28T13:48:15;1.52;;;1.02;;
51082;SDS011;37131;42.694;23.350;2023-07-28T13:50:40;1.95;;;0.88;;
51082;SDS011;37131;42.694;23.350;2023-07-28T13:53:06;0.93;;;0.70;;
51082;SDS011;37131;42.694;23.350;2023-07-28T13:55:32;1.63;;;0.80;;
51082;SDS011;37131;42.694;23.350;2023-07-28T13:57:57;1.50;;;0.85;;
51082;SDS011;37131;42.694;23.350;2023-07-28T14:00:22;1.67;;;0.80;;
51082;SDS011;37131;42.694;23.350;2023-07-28T14:02:48;1.25;;;0.80;;
51082;SDS011;37131;42.694;23.350;2023-07-28T14:05:13;3.15;;;0.82;;
51082;SDS011;37131;42.694;23.350;2023-07-28T14:07:38;2.38;;;0.88;;
51082;SDS011;37131;42.694;23.350;2023-07-28T14:10:04;3.53;;;0.90;;
51082;SDS011;37131;42.694;23.350;2023-07-28T14:12:30;1.33;;;0.70;;
51082;SDS011;37131;42.694;23.350;2023-07-28T14:14:55;1.77;;;0.85;;
51082;SDS011;37131;42.694;23.350;2023-07-28T14:17:20;2.30;;;0.90;;
51082;SDS011;37131;42.694;23.350;2023-07-28T14:19:46;2.13;;;1.13;;
51082;SDS011;37131;42.694;23.350;2023-07-28T14:22:11;1.90;;;0.90;;
51082;SDS011;37131;42.694;23.350;2023-07-28T14:24:37;1.40;;;0.85;;
51082;SDS011;37131;42.694;23.350;2023-07-28T14:27:02;0.98;;;0.70;;
51082;SDS011;37131;42.694;23.350;2023-07-28T14:29:29;3.45;;;0.93;;
51082;SDS011;37131;42.694;23.350;2023-07-28T14:31:54;2.25;;;0.70;;
51082;SDS011;37131;42.694;23.350;2023-07-28T14:34:19;2.70;;;1.00;;
51082;SDS011;37131;42.694;23.350;2023-07-28T14:36:45;2.85;;;0.75;;
51082;SDS011;37131;42.694;23.350;2023-07-28T14:39:10;1.30;;;0.80;;
51082;SDS011;37131;42.694;23.350;2023-07-28T14:41:36;1.85;;;0.82;;
51082;SDS011;37131;42.694;23.350;2023-07-28T14:44:02;1.63;;;0.85;;
51082;SDS011;37131;42.694;23.350;2023-07-28T14:46:27;2.03;;;0.90;;